Artesia, Mississippi
Current Conditions -  °F | °C
As of 7:45 PM on Monday 24 Nov 2014 (Local Time) from KGTR Reporting Station
Clear Clear  
Wind Chill:   Ceiling: Unl
Heat Index:   Visibility: 10mi
Dew Point:   Wind: 7mph
Humidity: 57%   Direction: 310°NW
Pressure: 30.02"   Gusts: NA
Location:  33.42°N, 88.64°W
Report Text: KGTR 250145Z 31006KT 10SM SKC 09/01 A3002
Loading
Personal Weather Stations






























Interactive Weather Map New forecast layout! Learn more

10-Day Weather Forecast

Advertisements
Track Severe Weather on mobile